createdAt,value
2018-03-11T00:07:15.197Z,0
2018-03-11T00:17:15.182Z,0
2018-03-11T00:27:15.162Z,0
2018-03-11T00:37:15.254Z,0
2018-03-11T00:47:15.229Z,0
2018-03-11T00:57:15.309Z,0
2018-03-11T01:07:15.221Z,0
2018-03-11T01:17:15.202Z,0
2018-03-11T01:27:15.172Z,0
2018-03-11T01:37:15.220Z,0
2018-03-11T01:47:15.240Z,0
2018-03-11T01:57:15.124Z,0
2018-03-11T02:07:15.234Z,0
2018-03-11T02:17:15.253Z,0
2018-03-11T02:27:15.169Z,0
2018-03-11T02:37:15.221Z,0
2018-03-11T02:47:15.153Z,0
2018-03-11T02:57:15.225Z,0
2018-03-11T03:07:15.171Z,0
2018-03-11T03:17:15.108Z,0
2018-03-11T03:27:15.196Z,0
2018-03-11T03:37:15.136Z,0
2018-03-11T03:47:15.263Z,0
2018-03-11T03:57:15.179Z,0
2018-03-11T04:07:15.156Z,0
2018-03-11T04:17:15.244Z,0
2018-03-11T04:27:15.212Z,0
2018-03-11T04:37:15.137Z,0
2018-03-11T04:47:15.165Z,0
2018-03-11T04:57:15.151Z,0
2018-03-11T05:07:15.113Z,0
2018-03-11T05:17:15.202Z,0
2018-03-11T05:27:15.140Z,0
2018-03-11T05:37:15.209Z,0
2018-03-11T05:47:18.452Z,0
2018-03-11T05:57:15.190Z,5
2018-03-11T06:07:15.231Z,10
2018-03-11T06:17:15.139Z,20
2018-03-11T06:27:21.766Z,30
2018-03-11T06:37:15.251Z,40
2018-03-11T06:47:18.380Z,50
2018-03-11T06:57:18.258Z,70
2018-03-11T07:07:15.228Z,80
2018-03-11T07:17:15.154Z,75
2018-03-11T07:27:18.588Z,95
2018-03-11T07:37:16.971Z,95
2018-03-11T07:47:15.212Z,90
2018-03-11T07:57:15.140Z,100
2018-03-11T08:07:15.135Z,90
2018-03-11T08:17:15.222Z,105
2018-03-11T08:27:15.093Z,95
2018-03-11T08:37:24.117Z,150
2018-03-11T08:47:15.192Z,95
2018-03-11T08:57:15.129Z,55
2018-03-11T09:07:21.368Z,70
2018-03-11T09:17:22.517Z,110
2018-03-11T09:27:18.842Z,165
2018-03-11T09:37:15.229Z,150
2018-03-11T09:47:15.144Z,170
2018-03-11T09:57:18.273Z,125
2018-03-11T10:07:19.116Z,105
2018-03-11T10:17:18.695Z,100
2018-03-11T10:27:15.179Z,145
2018-03-11T10:37:15.233Z,110
2018-03-11T10:47:15.086Z,260
2018-03-11T10:57:15.175Z,170
2018-03-11T11:07:15.142Z,235
2018-03-11T11:17:15.251Z,185
2018-03-11T11:27:15.203Z,140
2018-03-11T11:37:18.983Z,195
2018-03-11T11:47:15.232Z,165
2018-03-11T11:57:15.210Z,195
2018-03-11T12:07:15.221Z,225
2018-03-11T12:17:15.227Z,70
2018-03-11T12:27:22.159Z,55
2018-03-11T12:47:15.203Z,150
2018-03-11T12:57:18.792Z,120
2018-03-11T13:07:15.202Z,135
2018-03-11T13:17:18.509Z,125
2018-03-11T13:27:15.209Z,150
2018-03-11T13:37:21.559Z,160
2018-03-11T13:47:19.098Z,160
2018-03-11T13:57:15.213Z,155
2018-03-11T14:07:15.139Z,165
2018-03-11T14:17:15.088Z,150
2018-03-11T14:27:21.248Z,80
2018-03-11T14:37:15.228Z,65
2018-03-11T14:47:18.903Z,70
2018-03-11T14:57:18.315Z,80
2018-03-11T15:07:21.575Z,95
2018-03-11T15:17:15.203Z,95
2018-03-11T15:27:15.239Z,90
2018-03-11T15:37:15.256Z,70
2018-03-11T15:47:15.163Z,90
2018-03-11T15:57:15.229Z,75
2018-03-11T16:07:15.132Z,65
2018-03-11T16:17:15.157Z,55
2018-03-11T16:27:21.701Z,45
2018-03-11T16:37:15.247Z,40
2018-03-11T16:47:15.259Z,30
2018-03-11T16:57:15.193Z,20
2018-03-11T17:07:18.432Z,15
2018-03-11T17:17:15.267Z,5
2018-03-11T17:27:15.229Z,0
2018-03-11T17:37:15.251Z,0
2018-03-11T17:47:15.237Z,0
2018-03-11T17:57:22.422Z,0
2018-03-11T18:07:18.556Z,0
2018-03-11T18:17:25.539Z,0
2018-03-11T18:27:15.383Z,0
2018-03-11T18:37:15.280Z,0
2018-03-11T18:47:15.178Z,0
2018-03-11T18:57:15.185Z,0
2018-03-11T19:07:15.264Z,0
2018-03-11T19:17:21.876Z,0
2018-03-11T19:37:18.597Z,0
2018-03-11T19:47:15.176Z,0
2018-03-11T19:57:15.212Z,0
2018-03-11T20:07:18.858Z,0
2018-03-11T20:17:15.196Z,0
2018-03-11T20:27:15.142Z,0
2018-03-11T20:37:15.208Z,0
2018-03-11T20:47:15.235Z,0
2018-03-11T20:57:19.032Z,0
2018-03-11T21:07:19.013Z,0
2018-03-11T21:17:18.452Z,0
2018-03-11T21:27:15.174Z,0
2018-03-11T21:37:18.904Z,0
2018-03-11T21:47:15.284Z,0
2018-03-11T21:57:15.211Z,0
2018-03-11T22:07:19.872Z,0
2018-03-11T22:17:18.869Z,0
2018-03-11T22:27:15.136Z,0
2018-03-11T22:37:18.774Z,0
2018-03-11T22:47:15.150Z,0
2018-03-11T22:57:22.847Z,0
2018-03-11T23:07:15.219Z,0
2018-03-11T23:17:15.150Z,0
2018-03-11T23:27:15.238Z,0
2018-03-11T23:37:15.218Z,0
2018-03-11T23:47:18.620Z,0
